createdAt,value
2018-04-29T00:00:19.603Z,12.83
2018-04-29T00:01:20.176Z,12.85
2018-04-29T00:02:20.747Z,12.78
2018-04-29T00:03:21.319Z,12.94
2018-04-29T00:04:21.895Z,12.91
2018-04-29T00:05:22.467Z,12.86
2018-04-29T00:06:23.048Z,13.00
2018-04-29T00:07:23.619Z,12.86
2018-04-29T00:08:24.191Z,12.70
2018-04-29T00:09:24.762Z,12.67
2018-04-29T00:10:25.332Z,12.79
2018-04-29T00:11:25.907Z,12.65
2018-04-29T00:12:26.487Z,12.68
2018-04-29T00:13:27.067Z,12.67
2018-04-29T00:14:27.629Z,12.75
2018-04-29T00:15:28.201Z,12.94
2018-04-29T00:16:28.773Z,12.83
2018-04-29T00:17:29.344Z,13.20
2018-04-29T00:18:29.916Z,13.00
2018-04-29T00:19:30.487Z,12.73
2018-04-29T00:20:31.059Z,12.46
2018-04-29T00:21:31.640Z,12.40
2018-04-29T00:22:32.213Z,12.46
2018-04-29T00:23:32.783Z,12.58
2018-04-29T00:24:33.356Z,12.68
2018-04-29T00:25:33.940Z,12.75
2018-04-29T00:26:34.512Z,12.85
2018-04-29T00:27:35.085Z,12.76
2018-04-29T00:28:35.656Z,12.94
2018-04-29T00:29:36.230Z,12.83
2018-04-29T00:30:36.801Z,12.54
2018-04-29T00:31:37.385Z,12.24
2018-04-29T00:32:37.962Z,12.17
2018-04-29T00:33:38.539Z,12.36
2018-04-29T00:34:39.113Z,12.09
2018-04-29T00:35:39.686Z,12.25
2018-04-29T00:36:40.259Z,12.45
2018-04-29T00:37:40.833Z,12.36
2018-04-29T00:38:41.416Z,12.31
2018-04-29T00:39:41.986Z,12.40
2018-04-29T00:40:42.551Z,12.67
2018-04-29T00:41:43.134Z,12.43
2018-04-29T00:42:43.707Z,12.40
2018-04-29T00:43:44.278Z,12.37
2018-04-29T00:44:44.849Z,12.22
2018-04-29T00:45:45.421Z,12.25
2018-04-29T00:46:45.992Z,12.20
2018-04-29T00:47:46.564Z,12.13
2018-04-29T00:48:47.155Z,12.20
2018-04-29T00:49:47.719Z,12.25
2018-04-29T00:50:48.288Z,12.15
2018-04-29T00:51:48.861Z,12.24
2018-04-29T00:52:49.442Z,12.36
2018-04-29T00:53:50.015Z,12.47
2018-04-29T00:54:50.592Z,12.73
2018-04-29T00:55:51.160Z,12.61
2018-04-29T00:56:51.740Z,12.50
2018-04-29T00:57:52.310Z,12.42
2018-04-29T00:58:52.882Z,12.07
2018-04-29T00:59:53.452Z,12.12
2018-04-29T01:00:54.035Z,12.18
2018-04-29T01:01:54.616Z,12.17
2018-04-29T01:02:55.191Z,12.20
2018-04-29T01:03:55.762Z,12.13
2018-04-29T01:04:56.337Z,12.15
2018-04-29T01:05:56.945Z,12.22
2018-04-29T01:06:57.483Z,12.02
2018-04-29T01:07:58.054Z,11.68
2018-04-29T01:08:58.633Z,11.45
2018-04-29T01:09:59.205Z,11.48
2018-04-29T01:10:59.777Z,11.69
2018-04-29T01:12:00.355Z,11.95
2018-04-29T01:13:00.921Z,11.97
2018-04-29T01:14:01.559Z,11.87
2018-04-29T01:15:02.078Z,11.95
2018-04-29T01:16:02.646Z,11.77
2018-04-29T01:17:03.227Z,11.84
2018-04-29T01:18:03.798Z,12.27
2018-04-29T01:19:04.369Z,12.42
2018-04-29T01:20:04.940Z,12.42
2018-04-29T01:21:05.510Z,11.90
2018-04-29T01:22:06.081Z,11.45
2018-04-29T01:23:06.732Z,11.25
2018-04-29T01:24:07.222Z,11.12
2018-04-29T01:25:07.794Z,11.78
2018-04-29T01:26:08.369Z,12.07
2018-04-29T01:27:08.939Z,11.95
2018-04-29T01:28:09.512Z,11.95
2018-04-29T01:29:10.082Z,12.04
2018-04-29T01:30:10.670Z,11.77
2018-04-29T01:31:11.236Z,11.80
2018-04-29T01:32:11.807Z,11.81
2018-04-29T01:33:12.380Z,11.94
2018-04-29T01:34:12.960Z,11.77
2018-04-29T01:35:13.533Z,11.52
2018-04-29T01:36:14.104Z,11.25
2018-04-29T01:37:14.678Z,11.57
2018-04-29T01:38:15.248Z,11.25
2018-04-29T01:39:15.830Z,11.23
2018-04-29T01:40:16.400Z,11.33
2018-04-29T01:41:16.970Z,11.26
2018-04-29T01:42:17.540Z,11.23
2018-04-29T01:43:18.113Z,11.08
2018-04-29T01:44:18.683Z,11.52
2018-04-29T01:45:19.263Z,11.97
2018-04-29T01:46:19.843Z,11.95
2018-04-29T01:47:20.414Z,11.59
2018-04-29T01:48:20.988Z,11.95
2018-04-29T01:49:21.561Z,12.03
2018-04-29T01:50:22.132Z,12.04
2018-04-29T01:51:22.705Z,12.00
2018-04-29T01:52:23.274Z,12.04
2018-04-29T01:53:23.857Z,11.66
2018-04-29T01:54:24.429Z,11.65
2018-04-29T01:55:25.002Z,11.87
2018-04-29T01:56:25.572Z,12.06
2018-04-29T01:57:26.152Z,11.97
2018-04-29T01:58:26.722Z,11.68
2018-04-29T01:59:27.291Z,11.91
2018-04-29T02:00:27.863Z,12.18
2018-04-29T02:01:28.434Z,12.06
2018-04-29T02:02:29.005Z,12.07
2018-04-29T02:03:29.577Z,11.73
2018-04-29T02:04:30.149Z,11.90
2018-04-29T02:05:30.720Z,11.68
2018-04-29T02:06:31.296Z,11.55
2018-04-29T02:07:31.862Z,11.87
2018-04-29T02:08:32.433Z,11.99
2018-04-29T02:09:33.004Z,11.66
2018-04-29T02:10:33.586Z,11.62
2018-04-29T02:11:34.159Z,11.54
2018-04-29T02:12:34.730Z,11.81
2018-04-29T02:13:35.303Z,11.73
2018-04-29T02:14:35.873Z,11.65
2018-04-29T02:15:36.448Z,11.44
2018-04-29T02:16:37.018Z,11.45
2018-04-29T02:17:37.587Z,11.44
2018-04-29T02:18:38.161Z,11.77
2018-04-29T02:19:38.727Z,11.75
2018-04-29T02:20:39.298Z,11.91
2018-04-29T02:21:39.869Z,12.04
2018-04-29T02:22:40.440Z,11.99
2018-04-29T02:23:41.012Z,12.04
2018-04-29T02:24:41.584Z,11.77
2018-04-29T02:25:42.156Z,11.54
2018-04-29T02:26:42.734Z,11.43
2018-04-29T02:27:43.299Z,11.70
2018-04-29T02:28:43.871Z,11.63
2018-04-29T02:29:44.441Z,11.59
2018-04-29T02:30:45.013Z,11.70
2018-04-29T02:31:45.583Z,12.09
2018-04-29T02:32:46.153Z,11.73
2018-04-29T02:33:46.723Z,11.43
2018-04-29T02:34:47.297Z,11.29
2018-04-29T02:35:47.866Z,11.35
2018-04-29T02:36:48.444Z,11.91
2018-04-29T02:37:49.025Z,12.10
2018-04-29T02:38:49.607Z,11.81
2018-04-29T02:39:50.178Z,11.91
2018-04-29T02:40:50.751Z,11.75
2018-04-29T02:41:51.320Z,11.59
2018-04-29T02:42:51.892Z,11.48
2018-04-29T02:43:52.507Z,11.45
2018-04-29T02:44:53.030Z,11.50
2018-04-29T02:45:53.602Z,11.59
2018-04-29T02:46:54.172Z,11.29
2018-04-29T02:47:54.742Z,11.27
2018-04-29T02:48:55.313Z,11.32
2018-04-29T02:49:55.882Z,11.22
2018-04-29T02:50:56.452Z,11.05
2018-04-29T02:51:57.023Z,10.97
2018-04-29T02:52:57.595Z,10.79
2018-04-29T02:53:58.175Z,10.75
2018-04-29T02:54:58.745Z,10.79
2018-04-29T02:55:59.318Z,11.02
2018-04-29T02:56:59.887Z,11.35
2018-04-29T02:58:00.458Z,11.11
2018-04-29T02:59:01.030Z,11.11
2018-04-29T03:00:01.598Z,11.29
2018-04-29T03:01:02.244Z,11.27
2018-04-29T03:02:02.738Z,11.25
2018-04-29T03:03:03.309Z,11.00
2018-04-29T03:04:03.882Z,11.04
2018-04-29T03:05:04.459Z,11.29
2018-04-29T03:06:05.030Z,11.43
2018-04-29T03:07:05.601Z,11.45
2018-04-29T03:08:06.172Z,11.29
2018-04-29T03:09:06.743Z,11.08
2018-04-29T03:10:07.314Z,11.15
2018-04-29T03:11:07.883Z,11.04
2018-04-29T03:12:08.452Z,10.79
2018-04-29T03:13:09.033Z,10.69
2018-04-29T03:14:09.606Z,10.56
2018-04-29T03:15:10.176Z,10.69
2018-04-29T03:16:10.757Z,10.94
2018-04-29T03:17:11.316Z,10.46
2018-04-29T03:18:11.897Z,10.59
2018-04-29T03:19:12.469Z,10.51
2018-04-29T03:20:13.040Z,10.30
2018-04-29T03:21:13.612Z,10.16
2018-04-29T03:22:14.185Z,10.12
2018-04-29T03:23:14.753Z,10.15
2018-04-29T03:24:15.333Z,10.23
2018-04-29T03:25:15.904Z,10.22
2018-04-29T03:26:16.477Z,10.28
2018-04-29T03:27:17.057Z,10.17
2018-04-29T03:28:17.626Z,10.05
2018-04-29T03:29:18.195Z,9.91
2018-04-29T03:30:18.764Z,9.73
2018-04-29T03:31:19.332Z,9.64
2018-04-29T03:32:19.903Z,10.04
2018-04-29T03:33:20.472Z,10.02
2018-04-29T03:34:21.043Z,10.20
2018-04-29T03:35:21.611Z,10.33
2018-04-29T03:36:22.181Z,10.54
2018-04-29T03:37:22.750Z,10.90
2018-04-29T03:38:23.321Z,10.48
2018-04-29T03:39:23.901Z,10.78
2018-04-29T03:40:24.470Z,10.44
2018-04-29T03:41:25.043Z,10.42
2018-04-29T03:42:25.613Z,10.20
2018-04-29T03:43:26.181Z,10.26
2018-04-29T03:44:26.752Z,10.20
2018-04-29T03:45:27.333Z,10.10
2018-04-29T03:46:27.903Z,10.15
2018-04-29T03:47:28.473Z,10.16
2018-04-29T03:48:29.046Z,10.10
2018-04-29T03:49:29.615Z,10.09
2018-04-29T03:50:30.185Z,10.17
2018-04-29T03:51:30.756Z,10.23
2018-04-29T03:52:31.336Z,10.04
2018-04-29T03:53:31.907Z,9.92
2018-04-29T03:54:32.476Z,10.10
2018-04-29T03:55:33.047Z,10.28
2018-04-29T03:56:33.629Z,10.07
2018-04-29T03:57:34.200Z,9.84
2018-04-29T03:58:34.769Z,10.20
2018-04-29T03:59:35.341Z,10.22
2018-04-29T04:00:35.912Z,10.12
2018-04-29T04:01:36.482Z,10.38
2018-04-29T04:02:37.141Z,10.28
2018-04-29T04:03:37.623Z,10.26
2018-04-29T04:04:38.203Z,10.17
2018-04-29T04:05:38.775Z,10.17
2018-04-29T04:06:39.379Z,9.92
2018-04-29T04:07:39.917Z,10.15
2018-04-29T04:08:40.489Z,9.83
2018-04-29T04:09:41.078Z,9.83
2018-04-29T04:10:41.626Z,9.66
2018-04-29T04:11:42.195Z,9.92
2018-04-29T04:12:42.766Z,10.26
2018-04-29T04:13:43.337Z,10.67
2018-04-29T04:14:43.907Z,10.57
2018-04-29T04:15:44.479Z,10.46
2018-04-29T04:16:45.052Z,10.97
2018-04-29T04:17:45.622Z,10.90
2018-04-29T04:18:46.196Z,10.48
2018-04-29T04:19:46.765Z,10.33
2018-04-29T04:20:47.345Z,10.41
2018-04-29T04:21:47.922Z,10.86
2018-04-29T04:22:48.500Z,10.90
2018-04-29T04:23:49.093Z,10.59
2018-04-29T04:24:49.643Z,10.75
2018-04-29T04:25:50.220Z,11.08
2018-04-29T04:26:50.788Z,10.53
2018-04-29T04:27:51.359Z,10.53
2018-04-29T04:28:51.929Z,10.90
2018-04-29T04:29:52.498Z,10.69
2018-04-29T04:30:53.070Z,10.40
2018-04-29T04:31:53.639Z,10.20
2018-04-29T04:32:54.212Z,10.16
2018-04-29T04:33:54.784Z,10.22
2018-04-29T04:34:55.365Z,10.01
2018-04-29T04:35:55.936Z,10.01
2018-04-29T04:36:56.508Z,10.15
2018-04-29T04:37:57.079Z,10.22
2018-04-29T04:38:57.651Z,10.20
2018-04-29T04:39:58.223Z,10.16
2018-04-29T04:40:58.793Z,9.99
2018-04-29T04:41:59.366Z,9.92
2018-04-29T04:42:59.934Z,9.95
2018-04-29T04:44:00.504Z,9.95
2018-04-29T04:45:01.075Z,9.99
2018-04-29T04:46:01.645Z,9.99
2018-04-29T04:47:02.218Z,10.37
2018-04-29T04:48:02.793Z,10.30
2018-04-29T04:49:03.364Z,10.81
2018-04-29T04:50:03.935Z,10.69
2018-04-29T04:51:04.508Z,10.59
2018-04-29T04:52:05.091Z,10.56
2018-04-29T04:53:05.659Z,10.40
2018-04-29T04:54:06.230Z,10.57
2018-04-29T04:55:06.801Z,10.33
2018-04-29T04:56:07.370Z,10.53
2018-04-29T04:57:07.942Z,10.40
2018-04-29T04:58:08.537Z,10.34
2018-04-29T04:59:09.085Z,10.35
2018-04-29T05:00:09.658Z,10.28
2018-04-29T05:01:10.231Z,10.67
2018-04-29T05:02:10.802Z,11.04
2018-04-29T05:03:11.374Z,11.10
2018-04-29T05:04:11.949Z,11.18
2018-04-29T05:05:12.529Z,11.29
2018-04-29T05:06:13.101Z,11.17
2018-04-29T05:07:13.683Z,11.15
2018-04-29T05:08:14.256Z,11.29
2018-04-29T05:09:14.828Z,11.00
2018-04-29T05:10:15.399Z,10.96
2018-04-29T05:11:15.972Z,11.07
2018-04-29T05:12:16.544Z,11.11
2018-04-29T05:13:17.118Z,11.26
2018-04-29T05:14:17.689Z,10.90
2018-04-29T05:15:18.263Z,10.56
2018-04-29T05:16:18.839Z,10.51
2018-04-29T05:17:19.414Z,10.53
2018-04-29T05:18:19.990Z,10.59
2018-04-29T05:19:20.563Z,10.53
2018-04-29T05:20:21.143Z,10.63
2018-04-29T05:21:21.721Z,10.86
2018-04-29T05:22:22.291Z,10.99
2018-04-29T05:23:22.864Z,11.41
2018-04-29T05:24:23.440Z,11.45
2018-04-29T05:25:24.011Z,11.73
2018-04-29T05:26:24.595Z,11.72
2018-04-29T05:27:25.169Z,11.73
2018-04-29T05:28:25.741Z,11.45
2018-04-29T05:29:26.313Z,11.54
2018-04-29T05:30:26.886Z,11.41
2018-04-29T05:31:27.460Z,11.48
2018-04-29T05:32:28.036Z,11.72
2018-04-29T05:33:28.609Z,11.75
2018-04-29T05:34:29.189Z,11.80
2018-04-29T05:35:29.857Z,11.65
2018-04-29T05:36:30.330Z,11.69
2018-04-29T05:37:30.904Z,11.69
2018-04-29T05:38:31.480Z,12.13
2018-04-29T05:39:32.061Z,12.12
2018-04-29T05:40:32.635Z,12.09
2018-04-29T05:41:33.212Z,12.13
2018-04-29T05:42:33.781Z,12.07
2018-04-29T05:43:34.357Z,11.88
2018-04-29T05:44:34.929Z,12.18
2018-04-29T05:45:35.503Z,12.15
2018-04-29T05:46:36.076Z,12.17
2018-04-29T05:47:36.648Z,12.22
2018-04-29T05:48:37.225Z,12.03
2018-04-29T05:49:37.810Z,12.18
2018-04-29T05:50:38.383Z,12.13
2018-04-29T05:51:38.958Z,12.09
2018-04-29T05:52:39.532Z,12.10
2018-04-29T05:53:40.105Z,12.10
2018-04-29T05:54:40.679Z,12.09
2018-04-29T05:55:41.258Z,12.18
2018-04-29T05:56:41.829Z,12.07
2018-04-29T05:57:42.404Z,12.27
2018-04-29T05:58:42.978Z,12.49
2018-04-29T05:59:43.554Z,12.43
2018-04-29T06:00:44.134Z,12.57
2018-04-29T06:01:44.709Z,12.70
2018-04-29T06:02:45.285Z,12.54
2018-04-29T06:03:45.859Z,12.46
2018-04-29T06:04:46.434Z,12.32
2018-04-29T06:05:47.008Z,12.22
2018-04-29T06:06:47.674Z,12.36
2018-04-29T06:07:48.161Z,12.31
2018-04-29T06:08:48.735Z,12.29
2018-04-29T06:09:49.309Z,12.47
2018-04-29T06:10:49.882Z,12.43
2018-04-29T06:11:50.456Z,12.55
2018-04-29T06:12:51.032Z,12.54
2018-04-29T06:13:51.607Z,12.42
2018-04-29T06:14:52.190Z,12.36
2018-04-29T06:15:52.765Z,12.32
2018-04-29T06:16:53.339Z,12.28
2018-04-29T06:17:53.914Z,12.39
2018-04-29T06:18:54.492Z,12.28
2018-04-29T06:19:55.063Z,12.45
2018-04-29T06:20:55.637Z,12.57
2018-04-29T06:21:56.211Z,12.53
2018-04-29T06:22:56.789Z,12.60
2018-04-29T06:23:57.367Z,12.67
2018-04-29T06:24:57.933Z,12.68
2018-04-29T06:25:58.558Z,12.73
2018-04-29T06:26:59.093Z,12.67
2018-04-29T06:27:59.667Z,12.97
2018-04-29T06:29:00.239Z,13.22
2018-04-29T06:30:00.815Z,13.33
2018-04-29T06:31:01.389Z,13.22
2018-04-29T06:32:02.026Z,12.91
2018-04-29T06:33:02.546Z,12.90
2018-04-29T06:34:03.121Z,12.97
2018-04-29T06:35:03.696Z,12.91
2018-04-29T06:36:04.270Z,12.94
2018-04-29T06:37:04.845Z,12.85
2018-04-29T06:38:05.431Z,13.01
2018-04-29T06:39:06.006Z,12.91
2018-04-29T06:40:06.581Z,12.97
2018-04-29T06:41:07.157Z,13.09
2018-04-29T06:42:07.743Z,13.16
2018-04-29T06:43:08.318Z,13.52
2018-04-29T06:44:08.893Z,13.22
2018-04-29T06:45:09.473Z,13.01
2018-04-29T06:46:10.041Z,12.94
2018-04-29T06:47:10.617Z,12.91
2018-04-29T06:48:11.191Z,12.94
2018-04-29T06:49:11.766Z,12.82
2018-04-29T06:50:12.340Z,12.93
2018-04-29T06:51:12.916Z,12.97
2018-04-29T06:52:13.499Z,13.08
2018-04-29T06:53:14.067Z,13.27
2018-04-29T06:54:14.642Z,13.41
2018-04-29T06:55:15.216Z,13.57
2018-04-29T06:56:15.792Z,13.53
2018-04-29T06:57:16.367Z,13.57
2018-04-29T06:58:16.942Z,13.62
2018-04-29T06:59:17.528Z,13.49
2018-04-29T07:00:18.114Z,13.44
2018-04-29T07:01:18.690Z,13.46
2018-04-29T07:02:19.265Z,13.67
2018-04-29T07:03:19.843Z,13.57
2018-04-29T07:04:20.427Z,13.63
2018-04-29T07:05:21.001Z,13.72
2018-04-29T07:06:21.575Z,13.63
2018-04-29T07:07:22.162Z,13.75
2018-04-29T07:08:22.737Z,13.77
2018-04-29T07:09:23.320Z,13.83
2018-04-29T07:10:23.896Z,13.72
2018-04-29T07:11:24.473Z,13.63
2018-04-29T07:12:25.056Z,13.72
2018-04-29T07:13:25.644Z,13.78
2018-04-29T07:14:26.215Z,13.99
2018-04-29T07:15:26.790Z,14.08
2018-04-29T07:16:27.366Z,14.20
2018-04-29T07:17:27.949Z,14.37
2018-04-29T07:18:28.523Z,14.30
2018-04-29T07:19:29.097Z,14.29
2018-04-29T07:20:29.673Z,14.48
2018-04-29T07:21:30.249Z,14.50
2018-04-29T07:22:30.823Z,14.41
2018-04-29T07:23:31.398Z,14.26
2018-04-29T07:24:31.976Z,14.33
2018-04-29T07:25:32.550Z,14.32
2018-04-29T07:26:33.123Z,14.25
2018-04-29T07:27:33.700Z,14.33
2018-04-29T07:28:34.292Z,14.33
2018-04-29T07:29:34.867Z,14.41
2018-04-29T07:30:35.447Z,14.50
2018-04-29T07:31:36.035Z,14.55
2018-04-29T07:32:36.617Z,14.63
2018-04-29T07:33:37.192Z,14.66
2018-04-29T07:34:37.772Z,14.69
2018-04-29T07:35:38.342Z,14.68
2018-04-29T07:36:38.920Z,14.55
2018-04-29T07:37:39.493Z,14.68
2018-04-29T07:38:40.066Z,14.72
2018-04-29T07:39:40.641Z,14.78
2018-04-29T07:40:41.219Z,14.60
2018-04-29T07:41:41.792Z,14.55
2018-04-29T07:42:42.367Z,14.66
2018-04-29T07:43:42.941Z,14.72
2018-04-29T07:44:43.517Z,14.59
2018-04-29T07:45:44.095Z,14.72
2018-04-29T07:46:44.669Z,14.82
2018-04-29T07:47:45.246Z,14.82
2018-04-29T07:48:45.908Z,15.07
2018-04-29T07:49:46.407Z,15.03
2018-04-29T07:50:46.993Z,15.10
2018-04-29T07:51:47.570Z,15.17
2018-04-29T07:52:48.145Z,15.25
2018-04-29T07:53:48.721Z,15.17
2018-04-29T07:54:49.306Z,15.21
2018-04-29T07:55:49.892Z,15.10
2018-04-29T07:56:50.466Z,15.06
2018-04-29T07:57:51.043Z,14.97
2018-04-29T07:58:51.618Z,15.00
2018-04-29T07:59:52.193Z,14.99
2018-04-29T08:00:52.818Z,15.06
2018-04-29T08:01:53.346Z,15.18
2018-04-29T08:02:53.920Z,14.96
2018-04-29T08:03:54.497Z,14.91
2018-04-29T08:04:55.073Z,14.77
2018-04-29T08:05:55.650Z,14.91
2018-04-29T08:06:56.223Z,14.84
2018-04-29T08:07:56.797Z,14.91
2018-04-29T08:08:57.374Z,14.99
2018-04-29T08:09:57.949Z,14.89
2018-04-29T08:10:58.528Z,14.89
2018-04-29T08:11:59.102Z,14.70
2018-04-29T08:12:59.677Z,14.70
2018-04-29T08:14:00.251Z,14.78
2018-04-29T08:15:00.828Z,14.79
2018-04-29T08:16:01.406Z,14.84
2018-04-29T08:17:01.981Z,14.81
2018-04-29T08:18:02.556Z,14.88
2018-04-29T08:19:03.133Z,14.84
2018-04-29T08:20:03.708Z,14.82
2018-04-29T08:21:04.286Z,14.77
2018-04-29T08:22:04.859Z,14.70
2018-04-29T08:23:05.435Z,14.79
2018-04-29T08:24:06.013Z,14.73
2018-04-29T08:25:06.599Z,14.86
2018-04-29T08:26:07.185Z,14.68
2018-04-29T08:27:07.771Z,14.68
2018-04-29T08:28:08.348Z,14.68
2018-04-29T08:29:08.922Z,14.63
2018-04-29T08:30:09.526Z,14.68
2018-04-29T08:31:10.073Z,14.72
2018-04-29T08:32:10.650Z,14.89
2018-04-29T08:33:11.227Z,14.70
2018-04-29T08:34:11.803Z,14.84
2018-04-29T08:35:12.378Z,14.73
2018-04-29T08:36:12.977Z,14.89
2018-04-29T08:37:13.529Z,14.85
2018-04-29T08:38:14.109Z,14.94
2018-04-29T08:39:14.679Z,14.96
2018-04-29T08:40:15.254Z,15.14
2018-04-29T08:41:15.833Z,15.14
2018-04-29T08:42:16.408Z,15.18
2018-04-29T08:43:17.071Z,15.24
2018-04-29T08:44:17.559Z,15.27
2018-04-29T08:45:18.136Z,15.19
2018-04-29T08:46:18.712Z,15.11
2018-04-29T08:47:19.287Z,15.09
2018-04-29T08:48:19.862Z,15.04
2018-04-29T08:49:20.441Z,15.06
2018-04-29T08:50:21.013Z,15.25
2018-04-29T08:51:21.600Z,15.29
2018-04-29T08:52:22.177Z,15.37
2018-04-29T08:53:22.759Z,15.49
2018-04-29T08:54:23.342Z,15.43
2018-04-29T08:55:23.918Z,15.55
2018-04-29T08:56:24.504Z,15.70
2018-04-29T08:57:25.081Z,16.00
2018-04-29T08:58:25.661Z,16.02
2018-04-29T08:59:26.235Z,16.10
2018-04-29T09:00:26.810Z,16.08
2018-04-29T09:01:27.387Z,16.28
2018-04-29T09:02:27.962Z,16.09
2018-04-29T09:03:28.539Z,16.29
2018-04-29T09:04:29.113Z,16.26
2018-04-29T09:05:29.690Z,16.23
2018-04-29T09:06:30.266Z,16.10
2018-04-29T09:07:30.842Z,16.28
2018-04-29T09:08:31.420Z,16.36
2018-04-29T09:09:31.995Z,16.21
2018-04-29T09:10:32.581Z,16.20
2018-04-29T09:11:33.157Z,16.02
2018-04-29T09:12:33.733Z,16.24
2018-04-29T09:13:34.309Z,16.21
2018-04-29T09:14:34.891Z,16.16
2018-04-29T09:15:35.466Z,16.29
2018-04-29T09:16:36.038Z,16.24
2018-04-29T09:17:36.618Z,16.32
2018-04-29T09:18:37.191Z,16.23
2018-04-29T09:19:37.770Z,16.15
2018-04-29T09:20:38.346Z,15.95
2018-04-29T09:21:38.921Z,15.92
2018-04-29T09:22:39.496Z,16.04
2018-04-29T09:23:40.073Z,16.09
2018-04-29T09:24:40.650Z,16.12
2018-04-29T09:25:41.228Z,15.90
2018-04-29T09:26:41.807Z,15.90
2018-04-29T09:27:42.381Z,15.97
2018-04-29T09:28:42.956Z,15.97
2018-04-29T09:29:43.533Z,15.90
2018-04-29T09:30:44.111Z,15.77
2018-04-29T09:31:44.683Z,15.75
2018-04-29T09:32:45.258Z,15.59
2018-04-29T09:33:45.836Z,15.72
2018-04-29T09:34:46.409Z,15.90
2018-04-29T09:35:46.995Z,15.77
2018-04-29T09:36:47.571Z,15.75
2018-04-29T09:37:48.147Z,15.82
2018-04-29T09:38:48.731Z,15.77
2018-04-29T09:39:49.316Z,15.77
2018-04-29T09:40:49.892Z,15.76
2018-04-29T09:41:50.466Z,15.94
2018-04-29T09:42:51.041Z,16.05
2018-04-29T09:43:51.628Z,16.00
2018-04-29T09:44:52.203Z,16.31
2018-04-29T09:45:52.778Z,16.32
2018-04-29T09:46:53.355Z,16.33
2018-04-29T09:47:53.931Z,16.26
2018-04-29T09:48:54.507Z,15.94
2018-04-29T09:49:55.082Z,15.82
2018-04-29T09:50:55.659Z,15.76
2018-04-29T09:51:56.234Z,15.68
2018-04-29T09:52:56.810Z,15.65
2018-04-29T09:53:57.388Z,15.72
2018-04-29T09:54:57.963Z,15.67
2018-04-29T09:55:58.539Z,15.77
2018-04-29T09:56:59.115Z,15.76
2018-04-29T09:57:59.701Z,15.94
2018-04-29T09:59:00.278Z,15.95
2018-04-29T10:00:00.856Z,15.86
2018-04-29T10:01:01.479Z,15.83
2018-04-29T10:02:02.009Z,15.72
2018-04-29T10:03:02.586Z,15.77
2018-04-29T10:04:03.161Z,16.08
2018-04-29T10:05:03.738Z,16.20
2018-04-29T10:06:04.314Z,16.15
2018-04-29T10:07:04.891Z,16.24
2018-04-29T10:08:05.468Z,16.33
2018-04-29T10:09:06.044Z,16.31
2018-04-29T10:10:06.622Z,16.38
2018-04-29T10:11:07.203Z,16.29
2018-04-29T10:12:07.775Z,16.56
2018-04-29T10:13:08.352Z,16.64
2018-04-29T10:14:08.929Z,16.74
2018-04-29T10:15:09.506Z,16.91
2018-04-29T10:16:10.082Z,16.74
2018-04-29T10:17:10.659Z,16.81
2018-04-29T10:18:11.236Z,16.56
2018-04-29T10:19:11.813Z,16.53
2018-04-29T10:20:12.392Z,16.58
2018-04-29T10:21:12.967Z,16.42
2018-04-29T10:22:13.542Z,16.61
2018-04-29T10:23:14.120Z,16.71
2018-04-29T10:24:14.701Z,16.69
2018-04-29T10:25:15.284Z,16.87
2018-04-29T10:26:15.862Z,16.61
2018-04-29T10:27:16.438Z,16.28
2018-04-29T10:28:17.016Z,16.28
2018-04-29T10:29:17.592Z,16.21
2018-04-29T10:30:18.168Z,16.43
2018-04-29T10:31:18.747Z,16.68
2018-04-29T10:32:19.373Z,16.76
2018-04-29T10:33:19.899Z,16.93
2018-04-29T10:34:20.475Z,17.08
2018-04-29T10:35:21.052Z,17.24
2018-04-29T10:36:21.632Z,17.22
2018-04-29T10:37:22.210Z,17.39
2018-04-29T10:38:22.797Z,17.24
2018-04-29T10:39:23.374Z,17.52
2018-04-29T10:40:23.951Z,17.38
2018-04-29T10:41:24.526Z,17.33
2018-04-29T10:42:25.105Z,17.36
2018-04-29T10:43:25.682Z,17.27
2018-04-29T10:44:26.259Z,17.34
2018-04-29T10:45:26.836Z,17.36
2018-04-29T10:46:27.414Z,17.44
2018-04-29T10:47:27.991Z,17.23
2018-04-29T10:48:28.571Z,17.41
2018-04-29T10:49:29.145Z,17.36
2018-04-29T10:50:29.719Z,17.42
2018-04-29T10:51:30.308Z,17.29
2018-04-29T10:52:30.958Z,17.33
2018-04-29T10:53:31.464Z,17.63
2018-04-29T10:54:32.039Z,17.68
2018-04-29T10:55:32.618Z,17.74
2018-04-29T10:56:33.261Z,17.64
2018-04-29T10:57:33.771Z,-15.92
2018-04-29T10:58:34.350Z,-15.92
2018-04-29T10:59:34.938Z,-15.92
2018-04-29T11:00:35.514Z,-15.92
2018-04-29T11:01:36.094Z,-15.92
2018-04-29T11:02:36.673Z,-15.92
2018-04-29T11:03:37.266Z,-15.92
2018-04-29T11:04:37.842Z,-15.92
2018-04-29T11:05:38.418Z,-15.92
2018-04-29T11:06:38.997Z,-15.92
2018-04-29T11:07:39.576Z,-15.92
2018-04-29T11:08:40.152Z,-15.92
2018-04-29T11:09:40.731Z,-15.92
2018-04-29T11:10:41.308Z,-15.92
2018-04-29T11:11:41.895Z,-15.92
2018-04-29T11:12:42.473Z,-15.92
2018-04-29T11:13:43.050Z,-15.92
2018-04-29T11:14:43.627Z,-15.92
2018-04-29T11:15:44.215Z,-15.92
2018-04-29T11:16:44.795Z,-15.92
2018-04-29T11:17:45.372Z,-15.92
2018-04-29T11:18:45.959Z,-15.92
2018-04-29T11:19:46.539Z,-15.92
2018-04-29T11:20:47.124Z,-15.92
2018-04-29T11:21:47.703Z,-15.92
2018-04-29T11:22:48.286Z,-15.92
2018-04-29T11:23:48.859Z,-15.92
2018-04-29T11:24:49.434Z,-15.92
2018-04-29T11:25:50.012Z,-15.92
2018-04-29T11:26:50.589Z,-15.92
2018-04-29T11:27:51.168Z,-15.92
2018-04-29T11:28:51.745Z,-15.92
2018-04-29T11:29:52.322Z,-15.92
2018-04-29T11:30:52.899Z,-15.92
2018-04-29T11:31:53.476Z,-15.92
2018-04-29T11:32:54.055Z,-15.92
2018-04-29T11:33:54.699Z,-15.92
2018-04-29T11:34:55.215Z,-15.92
2018-04-29T11:35:55.795Z,-15.92
2018-04-29T11:36:56.372Z,-15.92
2018-04-29T11:37:56.950Z,-15.92
2018-04-29T11:38:57.539Z,-15.92
2018-04-29T11:39:58.116Z,-15.92
2018-04-29T11:40:58.693Z,-15.92
2018-04-29T11:41:59.276Z,-15.92
2018-04-29T11:42:59.885Z,-15.92
2018-04-29T11:44:00.430Z,-15.92
2018-04-29T11:45:01.007Z,-15.92
2018-04-29T11:46:01.586Z,-15.92
2018-04-29T11:47:02.173Z,-15.92
2018-04-29T11:48:02.751Z,-15.92
2018-04-29T11:49:03.330Z,-15.92
2018-04-29T11:50:03.919Z,-15.92
2018-04-29T11:51:04.498Z,-15.92
2018-04-29T11:52:05.078Z,-15.92
2018-04-29T11:53:05.655Z,-15.92
2018-04-29T11:54:06.232Z,-15.92
2018-04-29T11:55:06.811Z,-15.92
2018-04-29T11:56:07.389Z,-15.92
2018-04-29T11:57:07.967Z,-15.92
2018-04-29T11:58:08.546Z,-15.92
2018-04-29T11:59:09.125Z,-15.92
2018-04-29T12:00:09.702Z,-15.92
2018-04-29T12:01:10.283Z,-15.92
2018-04-29T12:02:10.860Z,-15.92
2018-04-29T12:03:11.439Z,-15.92
2018-04-29T12:04:12.017Z,-15.92
2018-04-29T12:05:12.596Z,-15.92
2018-04-29T12:06:13.175Z,-15.92
2018-04-29T12:07:13.753Z,-15.92
2018-04-29T12:08:14.331Z,-15.92
2018-04-29T12:09:14.910Z,-15.92
2018-04-29T12:10:15.491Z,-15.92
2018-04-29T12:11:16.082Z,-15.92
2018-04-29T12:12:16.670Z,-15.92
2018-04-29T12:13:17.252Z,-15.92
2018-04-29T12:14:17.832Z,-15.92
2018-04-29T12:15:18.413Z,-15.92
2018-04-29T12:16:19.063Z,-15.92
2018-04-29T12:17:19.575Z,-15.92
2018-04-29T12:18:20.156Z,-15.92
2018-04-29T12:19:20.734Z,-15.92
2018-04-29T12:20:21.317Z,-15.92
2018-04-29T12:21:21.896Z,-15.92
2018-04-29T12:22:22.475Z,-15.92
2018-04-29T12:23:23.053Z,-15.92
2018-04-29T12:24:23.643Z,-15.92
2018-04-29T12:25:24.222Z,-15.92
2018-04-29T12:26:24.807Z,-15.92
2018-04-29T12:27:25.383Z,-15.92
2018-04-29T12:28:25.961Z,-15.92
2018-04-29T12:29:26.552Z,-15.92
2018-04-29T12:30:27.119Z,-15.92
2018-04-29T12:31:27.709Z,-15.92
2018-04-29T12:32:28.288Z,-15.92
2018-04-29T12:33:28.871Z,-15.92
2018-04-29T12:34:29.449Z,-15.92
2018-04-29T12:35:30.029Z,-15.92
2018-04-29T12:36:30.608Z,-15.92
2018-04-29T12:37:31.192Z,-15.92
2018-04-29T12:38:31.777Z,-15.92
2018-04-29T12:39:32.356Z,-15.92
2018-04-29T12:40:32.937Z,-15.92
2018-04-29T12:41:33.519Z,-15.92
2018-04-29T12:42:34.099Z,-15.92
2018-04-29T12:43:34.675Z,-15.92
2018-04-29T12:44:35.257Z,-15.92
2018-04-29T12:45:35.837Z,-15.92
2018-04-29T12:46:36.492Z,-15.92
2018-04-29T12:47:36.999Z,-15.92
2018-04-29T12:48:37.580Z,-15.92
2018-04-29T12:49:38.170Z,-15.92
2018-04-29T12:50:38.752Z,-15.92
2018-04-29T12:51:39.333Z,-15.92
2018-04-29T12:52:39.913Z,-15.92
2018-04-29T12:53:40.493Z,-15.92
2018-04-29T12:54:41.075Z,-15.92
2018-04-29T12:55:41.656Z,-15.92
2018-04-29T12:56:42.237Z,-15.92